createdAt,value
2019-05-29T00:00:33.315Z,1.97
2019-05-29T00:03:02.637Z,2.07
2019-05-29T00:05:31.958Z,4.40
2019-05-29T00:08:01.309Z,1.70
2019-05-29T00:10:30.734Z,1.67
2019-05-29T00:13:00.078Z,2.50
2019-05-29T00:15:29.532Z,2.00
2019-05-29T00:17:58.886Z,2.40
2019-05-29T00:20:28.213Z,2.07
2019-05-29T00:22:57.570Z,1.10
2019-05-29T00:25:26.886Z,3.47
2019-05-29T00:27:56.289Z,2.00
2019-05-29T00:30:25.648Z,1.70
2019-05-29T00:32:55.002Z,3.37
2019-05-29T00:35:24.298Z,1.73
2019-05-29T00:37:53.634Z,1.80
2019-05-29T00:40:23.018Z,1.73
2019-05-29T00:42:52.364Z,1.70
2019-05-29T00:45:21.818Z,1.93
2019-05-29T00:47:51.137Z,3.17
2019-05-29T00:50:20.607Z,2.10
2019-05-29T00:52:49.923Z,2.30
2019-05-29T00:55:19.338Z,2.93
2019-05-29T00:57:48.658Z,2.50
2019-05-29T01:00:19.396Z,2.50
2019-05-29T01:02:48.858Z,2.50
2019-05-29T01:05:18.242Z,6.30
2019-05-29T01:07:47.575Z,2.93
2019-05-29T01:10:18.954Z,4.77
2019-05-29T01:12:48.406Z,4.83
2019-05-29T01:15:18.061Z,5.50
2019-05-29T01:17:47.388Z,6.70
2019-05-29T01:20:18.044Z,5.40
2019-05-29T01:22:47.459Z,7.23
2019-05-29T01:25:16.925Z,5.50
2019-05-29T01:27:46.259Z,5.30
2019-05-29T01:30:17.285Z,7.00
2019-05-29T01:32:46.761Z,6.93
2019-05-29T01:35:16.245Z,7.50
2019-05-29T01:37:45.562Z,7.87
2019-05-29T01:40:20.123Z,12.43
2019-05-29T01:42:49.757Z,11.07
2019-05-29T01:45:17.663Z,9.00
2019-05-29T01:47:46.988Z,9.97
2019-05-29T01:50:17.673Z,10.90
2019-05-29T01:52:47.140Z,12.03
2019-05-29T01:55:17.709Z,9.83
2019-05-29T01:57:47.441Z,15.23
2019-05-29T02:00:17.821Z,11.93
2019-05-29T02:02:47.213Z,11.90
2019-05-29T02:05:17.726Z,13.20
2019-05-29T02:07:47.341Z,13.47
2019-05-29T02:10:18.092Z,10.03
2019-05-29T02:12:47.594Z,11.80
2019-05-29T02:15:26.039Z,9.27
2019-05-29T02:17:48.705Z,12.33
2019-05-29T02:20:21.011Z,10.87
2019-05-29T02:22:50.588Z,10.10
2019-05-29T02:25:22.654Z,10.53
2019-05-29T02:27:52.033Z,15.27
2019-05-29T02:30:23.653Z,13.23
2019-05-29T02:32:52.664Z,12.30
2019-05-29T02:35:24.065Z,13.37
2019-05-29T02:37:53.118Z,13.43
2019-05-29T02:40:24.138Z,14.17
2019-05-29T02:42:53.694Z,13.33
2019-05-29T02:45:49.281Z,13.63
2019-05-29T02:47:57.011Z,11.60
2019-05-29T02:50:28.750Z,13.43
2019-05-29T02:52:57.489Z,13.00
2019-05-29T02:55:27.057Z,12.83
2019-05-29T02:57:57.814Z,14.43
2019-05-29T03:00:51.121Z,15.60
2019-05-29T03:03:23.521Z,16.13
2019-05-29T03:05:55.091Z,16.17
2019-05-29T03:08:26.948Z,13.83
2019-05-29T03:10:56.046Z,16.67
2019-05-29T03:13:26.172Z,14.20
2019-05-29T03:16:09.808Z,18.73
2019-05-29T03:18:28.108Z,14.43
2019-05-29T03:20:57.610Z,19.00
2019-05-29T03:23:28.838Z,17.73
2019-05-29T03:25:58.035Z,16.43
2019-05-29T03:28:27.636Z,20.37
2019-05-29T03:30:57.198Z,17.03
2019-05-29T03:33:28.520Z,17.27
2019-05-29T03:35:57.593Z,21.73
2019-05-29T03:38:28.302Z,21.00
2019-05-29T03:40:57.721Z,21.93
2019-05-29T03:43:28.592Z,26.23
2019-05-29T03:45:58.286Z,23.33
2019-05-29T03:48:27.905Z,26.37
2019-05-29T03:50:57.349Z,26.87
2019-05-29T03:53:27.093Z,25.40
2019-05-29T03:55:56.473Z,26.27
2019-05-29T03:58:26.396Z,27.40
2019-05-29T04:00:57.747Z,23.10
2019-05-29T04:03:28.838Z,25.73
2019-05-29T04:05:58.394Z,25.17
2019-05-29T04:08:29.277Z,26.60
2019-05-29T04:10:59.448Z,22.97
2019-05-29T04:13:29.634Z,24.90
2019-05-29T04:16:01.640Z,28.57
2019-05-29T04:18:33.950Z,23.70
2019-05-29T04:21:04.463Z,23.77
2019-05-29T04:23:36.252Z,25.07
2019-05-29T04:26:06.101Z,25.57
2019-05-29T04:28:37.326Z,24.07
2019-05-29T04:31:07.189Z,25.57
2019-05-29T04:33:36.838Z,25.10
2019-05-29T04:36:07.579Z,25.70
2019-05-29T04:38:39.718Z,23.30
2019-05-29T04:41:07.993Z,30.17
2019-05-29T04:43:37.945Z,26.37
2019-05-29T04:46:08.378Z,25.87
2019-05-29T04:48:39.928Z,23.90
2019-05-29T04:51:08.878Z,30.80
2019-05-29T04:53:39.880Z,23.97
2019-05-29T04:56:09.481Z,33.60
2019-05-29T04:58:39.100Z,24.10
2019-05-29T05:01:08.578Z,23.80
2019-05-29T05:03:37.925Z,29.13
2019-05-29T05:06:07.271Z,27.60
2019-05-29T05:08:37.446Z,27.50
2019-05-29T05:11:06.815Z,32.10
2019-05-29T05:13:36.238Z,24.27
2019-05-29T05:16:05.971Z,24.70
2019-05-29T05:18:35.836Z,27.00
2019-05-29T05:21:05.324Z,25.50
2019-05-29T05:23:34.677Z,25.90
2019-05-29T05:26:04.070Z,25.67
2019-05-29T05:28:34.323Z,29.60
2019-05-29T05:31:03.731Z,27.00
2019-05-29T05:33:33.075Z,24.40
2019-05-29T05:36:02.467Z,26.53
2019-05-29T05:38:32.592Z,27.17
2019-05-29T05:41:02.014Z,33.17
2019-05-29T05:43:31.359Z,23.93
2019-05-29T05:46:00.706Z,31.37
2019-05-29T05:48:30.948Z,26.17
2019-05-29T05:51:00.428Z,24.60
2019-05-29T05:53:29.766Z,27.20
2019-05-29T05:55:59.083Z,30.83
2019-05-29T05:58:28.458Z,24.43
2019-05-29T06:00:57.837Z,26.23
2019-05-29T06:03:27.278Z,31.03
2019-05-29T06:05:56.669Z,26.73
2019-05-29T06:08:26.005Z,25.57
2019-05-29T06:10:55.329Z,23.97
2019-05-29T06:13:24.743Z,25.23
2019-05-29T06:15:54.077Z,21.93
2019-05-29T06:18:23.431Z,23.40
2019-05-29T06:20:52.760Z,25.33
2019-05-29T06:23:22.240Z,25.30
2019-05-29T06:25:51.561Z,25.77
2019-05-29T06:28:20.903Z,23.00
2019-05-29T06:30:50.429Z,19.27
2019-05-29T06:33:19.774Z,20.90
2019-05-29T06:35:49.115Z,33.37
2019-05-29T06:38:18.477Z,29.03
2019-05-29T06:40:47.874Z,20.53
2019-05-29T06:43:27.008Z,21.77
2019-05-29T06:45:56.708Z,19.57
2019-05-29T06:48:58.642Z,19.00
2019-05-29T06:51:00.538Z,19.20
2019-05-29T06:53:29.930Z,19.70
2019-05-29T06:56:01.073Z,17.53
2019-05-29T06:58:30.431Z,19.90
2019-05-29T07:00:59.898Z,20.30
2019-05-29T07:03:29.261Z,15.27
2019-05-29T07:05:58.594Z,19.20
2019-05-29T07:08:38.097Z,16.60
2019-05-29T07:10:59.064Z,17.37
2019-05-29T07:13:28.387Z,16.97
2019-05-29T07:15:57.773Z,12.93
2019-05-29T07:18:27.103Z,15.90
2019-05-29T07:20:56.476Z,13.13
2019-05-29T07:23:25.819Z,16.80
2019-05-29T07:25:55.228Z,13.27
2019-05-29T07:28:24.554Z,15.03
2019-05-29T07:31:02.101Z,15.83
2019-05-29T07:33:24.974Z,15.90
2019-05-29T07:35:54.328Z,14.87
2019-05-29T07:38:23.655Z,12.43
2019-05-29T07:40:53.023Z,15.53
2019-05-29T07:43:22.375Z,13.27
2019-05-29T07:45:51.874Z,12.67
2019-05-29T07:48:21.215Z,13.17
2019-05-29T07:51:04.456Z,12.13
2019-05-29T07:53:21.594Z,12.37
2019-05-29T07:55:50.937Z,13.63
2019-05-29T07:58:20.258Z,14.13
2019-05-29T08:01:12.238Z,9.50
2019-05-29T08:03:23.655Z,11.87
2019-05-29T08:05:53.440Z,11.90
2019-05-29T08:08:22.919Z,8.20
2019-05-29T08:10:52.263Z,7.63
2019-05-29T08:13:21.579Z,11.07
2019-05-29T08:16:01.978Z,10.43
2019-05-29T08:18:21.967Z,8.23
2019-05-29T08:20:51.318Z,9.63
2019-05-29T08:23:20.657Z,8.03
2019-05-29T08:25:50.014Z,7.70
2019-05-29T08:28:19.317Z,9.50
2019-05-29T08:30:54.088Z,7.20
2019-05-29T08:33:19.705Z,7.13
2019-05-29T08:35:57.692Z,6.93
2019-05-29T08:38:20.128Z,6.10
2019-05-29T08:40:49.602Z,6.10
2019-05-29T08:43:19.004Z,6.80
2019-05-29T08:45:49.602Z,7.50
2019-05-29T08:48:19.027Z,7.10
2019-05-29T08:50:48.371Z,5.60
2019-05-29T08:53:17.732Z,6.80
2019-05-29T08:55:48.162Z,5.43
2019-05-29T08:58:17.745Z,5.70
2019-05-29T09:00:50.536Z,7.30
2019-05-29T09:03:18.148Z,5.93
2019-05-29T09:06:04.313Z,6.47
2019-05-29T09:08:18.580Z,7.03
2019-05-29T09:10:49.244Z,6.70
2019-05-29T09:13:18.924Z,5.43
2019-05-29T09:15:48.267Z,5.53
2019-05-29T09:18:17.659Z,6.77
2019-05-29T09:21:01.752Z,5.57
2019-05-29T09:23:18.900Z,6.90
2019-05-29T09:25:48.510Z,6.83
2019-05-29T09:28:18.359Z,9.47
2019-05-29T09:30:47.791Z,10.93
2019-05-29T09:33:18.664Z,4.47
2019-05-29T09:35:48.184Z,4.40
2019-05-29T09:38:18.652Z,5.17
2019-05-29T09:40:48.217Z,5.73
2019-05-29T09:43:18.662Z,4.50
2019-05-29T09:45:48.593Z,4.10
2019-05-29T09:48:20.100Z,4.40
2019-05-29T09:50:50.765Z,4.43
2019-05-29T09:53:20.038Z,6.07
2019-05-29T09:55:49.366Z,6.60
2019-05-29T09:58:18.702Z,4.83
2019-05-29T10:01:05.092Z,4.60
2019-05-29T10:03:19.435Z,5.57
2019-05-29T10:05:48.784Z,5.63
2019-05-29T10:08:18.174Z,4.07
2019-05-29T10:10:47.553Z,5.60
2019-05-29T10:13:16.956Z,5.13
2019-05-29T10:15:46.299Z,20.63
2019-05-29T10:18:31.383Z,6.30
2019-05-29T10:20:46.689Z,5.03
2019-05-29T10:23:16.023Z,5.63
2019-05-29T10:25:45.341Z,6.03
2019-05-29T10:28:14.723Z,5.30
2019-05-29T10:30:44.432Z,7.03
2019-05-29T10:33:15.270Z,5.90
2019-05-29T10:35:44.808Z,5.67
2019-05-29T10:38:14.205Z,5.83
2019-05-29T10:40:47.061Z,5.57
2019-05-29T10:43:14.625Z,4.70
2019-05-29T10:45:45.649Z,5.00
2019-05-29T10:48:15.178Z,4.37
2019-05-29T10:50:47.791Z,4.80
2019-05-29T10:53:15.552Z,3.33
2019-05-29T10:55:46.325Z,3.80
2019-05-29T10:58:15.632Z,7.00
2019-05-29T11:00:45.349Z,6.40
2019-05-29T11:03:14.874Z,4.70
2019-05-29T11:05:45.476Z,4.17
2019-05-29T11:08:14.998Z,4.13
2019-05-29T11:10:44.318Z,3.27
2019-05-29T11:13:13.745Z,3.90
2019-05-29T11:15:43.063Z,5.90
2019-05-29T11:18:12.421Z,6.10
2019-05-29T11:20:41.813Z,4.60
2019-05-29T11:23:12.809Z,4.40
2019-05-29T11:25:42.954Z,3.77
2019-05-29T11:28:12.330Z,4.20
2019-05-29T11:30:41.655Z,4.10
2019-05-29T11:33:11.025Z,3.70
2019-05-29T11:35:56.830Z,3.17
2019-05-29T11:38:11.499Z,3.57
2019-05-29T11:40:41.038Z,3.43
2019-05-29T11:43:10.477Z,4.33
2019-05-29T11:45:39.851Z,3.97
2019-05-29T11:48:09.150Z,5.13
2019-05-29T11:50:38.478Z,3.47
2019-05-29T11:53:07.902Z,3.13
2019-05-29T11:55:37.245Z,3.40
2019-05-29T11:58:06.659Z,3.10
2019-05-29T12:00:36.048Z,3.50
2019-05-29T12:03:06.869Z,3.30
2019-05-29T12:05:36.230Z,3.83
2019-05-29T12:08:05.734Z,7.07
2019-05-29T12:10:35.055Z,3.80
2019-05-29T12:13:04.467Z,4.07
2019-05-29T12:15:33.805Z,3.77
2019-05-29T12:18:20.866Z,4.57
2019-05-29T12:20:34.466Z,4.00
2019-05-29T12:23:24.778Z,3.60
2019-05-29T12:25:35.083Z,5.43
2019-05-29T12:28:04.586Z,3.27
2019-05-29T12:30:34.627Z,3.50
2019-05-29T12:33:04.417Z,1.93
2019-05-29T12:35:33.731Z,1.83
2019-05-29T12:38:03.530Z,1.80
2019-05-29T12:40:32.887Z,1.67
2019-05-29T12:43:03.651Z,1.73
2019-05-29T12:45:33.145Z,1.60
2019-05-29T12:48:09.822Z,2.17
2019-05-29T12:50:34.706Z,2.53
2019-05-29T12:53:05.738Z,1.63
2019-05-29T12:55:35.075Z,2.23
2019-05-29T12:58:04.729Z,2.13
2019-05-29T13:00:34.118Z,2.10
2019-05-29T13:03:05.054Z,1.60
2019-05-29T13:05:34.754Z,1.80
2019-05-29T13:08:05.212Z,5.33
2019-05-29T13:10:34.950Z,1.63
2019-05-29T13:13:10.068Z,1.57
2019-05-29T13:15:35.343Z,1.60
2019-05-29T13:18:09.516Z,1.60
2019-05-29T13:20:35.996Z,2.80
2019-05-29T13:23:07.306Z,1.70
2019-05-29T13:25:36.885Z,1.60
2019-05-29T13:28:06.353Z,2.33
2019-05-29T13:30:35.751Z,1.83
2019-05-29T13:33:07.379Z,2.20
2019-05-29T13:35:36.204Z,1.27
2019-05-29T13:38:05.599Z,1.50
2019-05-29T13:40:35.012Z,1.60
2019-05-29T13:43:11.159Z,1.40
2019-05-29T13:45:35.484Z,1.50
2019-05-29T13:48:05.455Z,2.87
2019-05-29T13:50:34.964Z,1.63
2019-05-29T13:53:05.512Z,2.07
2019-05-29T13:55:35.022Z,1.60
2019-05-29T13:58:04.397Z,1.73
2019-05-29T14:00:35.026Z,3.10
2019-05-29T14:03:06.937Z,2.40
2019-05-29T14:05:36.588Z,2.03
2019-05-29T14:08:07.045Z,2.00
2019-05-29T14:10:36.781Z,2.07
2019-05-29T14:13:07.431Z,2.60
2019-05-29T14:15:36.842Z,2.80
2019-05-29T14:18:07.093Z,3.93
2019-05-29T14:20:36.588Z,2.40
2019-05-29T14:23:07.478Z,2.03
2019-05-29T14:25:37.008Z,2.10
2019-05-29T14:28:06.892Z,2.40
2019-05-29T14:30:36.383Z,2.53
2019-05-29T14:33:06.827Z,1.63
2019-05-29T14:35:36.658Z,1.80
2019-05-29T14:38:09.923Z,1.80
2019-05-29T14:40:37.124Z,2.47
2019-05-29T14:43:10.117Z,2.07
2019-05-29T14:45:37.635Z,1.53
2019-05-29T14:48:08.175Z,1.63
2019-05-29T14:50:37.568Z,1.37
2019-05-29T14:53:13.698Z,1.60
2019-05-29T14:55:43.030Z,1.50
2019-05-29T14:58:12.365Z,1.50
2019-05-29T15:00:41.705Z,1.53
2019-05-29T15:03:11.575Z,1.60
2019-05-29T15:05:41.064Z,1.57
2019-05-29T15:08:10.432Z,1.43
2019-05-29T15:10:40.971Z,2.97
2019-05-29T15:13:15.353Z,1.40
2019-05-29T15:15:47.561Z,1.47
2019-05-29T15:18:18.967Z,1.23
2019-05-29T15:20:48.004Z,1.50
2019-05-29T15:23:20.374Z,1.93
2019-05-29T15:25:49.830Z,1.30
2019-05-29T15:28:19.154Z,6.63
2019-05-29T15:30:50.196Z,1.53
2019-05-29T15:33:19.507Z,1.27
2019-05-29T15:35:48.895Z,1.10
2019-05-29T15:38:18.219Z,1.30
2019-05-29T15:40:47.699Z,1.80
2019-05-29T15:43:17.342Z,1.77
2019-05-29T15:45:47.175Z,1.30
2019-05-29T15:48:17.381Z,1.00
2019-05-29T15:50:46.873Z,1.20
2019-05-29T15:53:17.285Z,1.47
2019-05-29T15:55:46.793Z,1.67
2019-05-29T15:58:17.796Z,1.50
2019-05-29T16:00:48.025Z,2.07
2019-05-29T16:03:17.776Z,2.40
2019-05-29T16:05:47.367Z,1.20
2019-05-29T16:08:16.771Z,1.50
2019-05-29T16:10:46.113Z,1.30
2019-05-29T16:13:17.335Z,2.23
2019-05-29T16:15:46.975Z,1.60
2019-05-29T16:18:26.191Z,2.30
2019-05-29T16:20:47.448Z,1.90
2019-05-29T16:23:31.026Z,1.90
2019-05-29T16:25:47.954Z,1.93
2019-05-29T16:28:17.365Z,2.10
2019-05-29T16:30:46.714Z,3.33
2019-05-29T16:33:17.222Z,1.87
2019-05-29T16:35:48.593Z,1.90
2019-05-29T16:38:18.021Z,3.40
2019-05-29T16:40:48.887Z,2.73
2019-05-29T16:43:20.409Z,2.03
2019-05-29T16:45:50.187Z,2.00
2019-05-29T16:48:20.652Z,2.37
2019-05-29T16:50:49.982Z,2.53
2019-05-29T16:53:23.281Z,2.30
2019-05-29T16:55:54.186Z,2.03
2019-05-29T16:58:24.148Z,2.70
2019-05-29T17:00:53.501Z,2.43
2019-05-29T17:03:23.811Z,2.40
2019-05-29T17:05:53.314Z,2.60
2019-05-29T17:08:22.676Z,2.40
2019-05-29T17:10:52.015Z,2.60
2019-05-29T17:13:22.439Z,4.10
2019-05-29T17:15:54.823Z,2.67
2019-05-29T17:18:25.934Z,1.87
2019-05-29T17:20:55.269Z,2.50
2019-05-29T17:23:25.082Z,2.73
2019-05-29T17:26:09.713Z,4.57
2019-05-29T17:28:28.080Z,2.63
2019-05-29T17:30:56.651Z,2.27
2019-05-29T17:33:30.880Z,1.70
2019-05-29T17:36:00.311Z,2.30
2019-05-29T17:38:31.729Z,3.43
2019-05-29T17:41:01.081Z,10.30
2019-05-29T17:43:30.438Z,8.53
2019-05-29T17:45:59.949Z,5.00
2019-05-29T17:48:29.364Z,2.27
2019-05-29T17:50:58.770Z,4.20
2019-05-29T17:53:31.860Z,9.10
2019-05-29T17:56:01.253Z,22.93
2019-05-29T17:58:30.809Z,5.00
2019-05-29T18:01:05.262Z,2.70
2019-05-29T18:03:34.603Z,4.43
2019-05-29T18:06:04.172Z,3.50
2019-05-29T18:08:33.576Z,2.60
2019-05-29T18:11:02.917Z,2.30
2019-05-29T18:13:32.303Z,2.60
2019-05-29T18:16:01.687Z,2.93
2019-05-29T18:18:31.079Z,2.80
2019-05-29T18:21:00.361Z,2.40
2019-05-29T18:23:29.696Z,2.90
2019-05-29T18:25:59.016Z,2.80
2019-05-29T18:28:28.399Z,3.30
2019-05-29T18:30:57.772Z,3.83
2019-05-29T18:33:27.157Z,2.80
2019-05-29T18:35:56.521Z,4.70
2019-05-29T18:38:26.525Z,2.60
2019-05-29T18:40:56.155Z,2.30
2019-05-29T18:43:26.582Z,2.00
2019-05-29T18:45:56.961Z,2.80
2019-05-29T18:48:27.279Z,3.63
2019-05-29T18:50:56.785Z,2.80
2019-05-29T18:53:26.982Z,2.30
2019-05-29T18:55:56.404Z,3.73
2019-05-29T18:58:26.044Z,2.53
2019-05-29T19:00:55.421Z,3.00
2019-05-29T19:03:25.381Z,3.23
2019-05-29T19:05:54.785Z,2.60
2019-05-29T19:08:24.231Z,3.27
2019-05-29T19:10:53.580Z,3.30
2019-05-29T19:13:23.773Z,3.40
2019-05-29T19:15:53.398Z,4.73
2019-05-29T19:18:24.085Z,3.53
2019-05-29T19:20:53.499Z,5.40
2019-05-29T19:23:22.894Z,4.70
2019-05-29T19:25:52.244Z,2.60
2019-05-29T19:28:22.492Z,3.37
2019-05-29T19:30:52.036Z,2.93
2019-05-29T19:33:25.212Z,6.40
2019-05-29T19:35:55.959Z,3.10
2019-05-29T19:38:25.664Z,3.90
2019-05-29T19:40:55.214Z,4.30
2019-05-29T19:43:24.609Z,4.03
2019-05-29T19:45:53.960Z,3.90
2019-05-29T19:48:24.671Z,4.50
2019-05-29T19:50:54.109Z,3.97
2019-05-29T19:53:26.884Z,5.33
2019-05-29T19:55:56.690Z,4.80
2019-05-29T19:58:26.019Z,4.83
2019-05-29T20:00:55.371Z,5.80
2019-05-29T20:03:26.601Z,5.40
2019-05-29T20:05:56.890Z,5.60
2019-05-29T20:08:27.051Z,5.53
2019-05-29T20:10:56.425Z,4.37
2019-05-29T20:13:29.835Z,9.43
2019-05-29T20:16:01.951Z,7.77
2019-05-29T20:18:32.084Z,7.00
2019-05-29T20:21:04.672Z,5.73
2019-05-29T20:23:36.768Z,11.40
2019-05-29T20:26:08.004Z,7.30
2019-05-29T20:28:42.549Z,6.30
2019-05-29T20:31:28.632Z,5.97
2019-05-29T20:34:17.198Z,6.63
2019-05-29T20:37:00.419Z,5.30
2019-05-29T20:39:32.837Z,7.20
2019-05-29T20:42:12.948Z,5.63
2019-05-29T20:44:52.212Z,72.80
2019-05-29T20:50:26.849Z,281.23
2019-05-29T20:52:56.213Z,138.67
2019-05-29T20:55:27.336Z,9.87
2019-05-29T20:57:57.042Z,6.03
2019-05-29T21:00:26.627Z,8.30
2019-05-29T21:02:56.004Z,7.13
2019-05-29T21:05:25.527Z,7.40
2019-05-29T21:07:58.221Z,6.90
2019-05-29T21:10:33.096Z,10.93
2019-05-29T21:13:04.775Z,10.00
2019-05-29T21:15:35.726Z,11.93
2019-05-29T21:18:08.160Z,14.20
2019-05-29T21:20:40.413Z,9.70
2019-05-29T21:23:12.259Z,12.53
2019-05-29T21:25:53.830Z,14.20
2019-05-29T21:28:39.667Z,16.03
2019-05-29T21:31:01.484Z,13.50
2019-05-29T21:33:30.820Z,13.77
2019-05-29T21:36:00.224Z,12.83
2019-05-29T21:38:29.729Z,11.63
2019-05-29T21:40:59.083Z,14.37
2019-05-29T21:43:28.506Z,12.50
2019-05-29T21:45:57.835Z,11.00
2019-05-29T21:48:27.235Z,10.33
2019-05-29T21:50:57.044Z,12.10
2019-05-29T21:53:26.561Z,11.30
2019-05-29T21:55:55.917Z,15.50
2019-05-29T21:58:25.256Z,13.27
2019-05-29T22:00:55.296Z,12.53
2019-05-29T22:03:24.783Z,11.87
2019-05-29T22:05:54.196Z,9.80
2019-05-29T22:08:23.525Z,11.93
2019-05-29T22:10:53.432Z,9.73
2019-05-29T22:13:22.970Z,14.77
2019-05-29T22:15:52.702Z,10.50
2019-05-29T22:18:22.001Z,9.87
2019-05-29T22:20:51.547Z,10.93
2019-05-29T22:23:21.970Z,10.20
2019-05-29T22:25:51.313Z,8.73
2019-05-29T22:28:20.643Z,11.63
2019-05-29T22:30:51.162Z,10.97
2019-05-29T22:33:20.735Z,7.90
2019-05-29T22:35:54.086Z,10.30
2019-05-29T22:38:23.915Z,16.07
2019-05-29T22:40:53.956Z,9.53
2019-05-29T22:43:23.371Z,11.10
2019-05-29T22:45:53.617Z,12.90
2019-05-29T22:48:23.570Z,10.40
2019-05-29T22:50:53.843Z,14.50
2019-05-29T22:53:23.289Z,14.30
2019-05-29T22:55:53.700Z,10.27
2019-05-29T22:58:23.149Z,15.37
2019-05-29T23:00:52.488Z,10.93
2019-05-29T23:03:21.856Z,15.13
2019-05-29T23:05:52.053Z,11.70
2019-05-29T23:08:21.538Z,10.70
2019-05-29T23:10:52.162Z,13.27
2019-05-29T23:13:21.603Z,14.00
2019-05-29T23:15:52.315Z,12.90
2019-05-29T23:18:21.654Z,10.27
2019-05-29T23:20:52.290Z,12.00
2019-05-29T23:23:21.821Z,17.87
2019-05-29T23:25:52.453Z,14.40
2019-05-29T23:28:22.004Z,10.97
2019-05-29T23:30:52.684Z,9.00
2019-05-29T23:33:22.117Z,10.33
2019-05-29T23:35:51.430Z,8.80
2019-05-29T23:38:20.768Z,9.13
2019-05-29T23:40:50.103Z,7.83
2019-05-29T23:43:19.435Z,9.73
2019-05-29T23:45:48.754Z,8.30
2019-05-29T23:48:18.093Z,8.27
2019-05-29T23:50:47.414Z,9.43
2019-05-29T23:53:16.762Z,8.60
2019-05-29T23:55:46.246Z,9.63
2019-05-29T23:58:15.591Z,8.37
